createdAt,value
2023-04-20T00:19:15.788Z,259.2
2023-04-20T00:29:13.916Z,251.7
2023-04-20T00:34:13.189Z,251.4
2023-04-20T00:39:13.672Z,251.1
2023-04-20T00:44:12.590Z,252
2023-04-20T00:49:13.225Z,252.6
2023-04-20T00:54:10.736Z,252.6
2023-04-20T00:59:09.968Z,252.8
2023-04-20T01:05:31.923Z,254.2
2023-04-20T01:15:31.172Z,253.6
2023-04-20T01:20:30.772Z,253.1
2023-04-20T01:25:29.818Z,252.5
2023-04-20T01:30:31.702Z,252.6
2023-04-20T01:35:29.136Z,251.7
2023-04-20T01:40:28.705Z,250.8
2023-04-20T01:50:26.412Z,252
2023-04-20T01:55:26.199Z,251.3
2023-04-20T02:04:46.918Z,244
2023-04-20T02:09:44.525Z,238.5
2023-04-20T03:04:50.785Z,242.8
2023-04-20T03:09:48.575Z,241.4
2023-04-20T03:14:47.925Z,240.4
2023-04-20T03:19:35.499Z,245.1
2023-04-20T03:24:35.054Z,242.8
2023-04-20T03:29:35.109Z,241.7
2023-04-20T03:34:34.545Z,242
2023-04-20T03:39:33.844Z,241
2023-04-20T03:44:33.997Z,242.9
2023-04-20T03:49:33.512Z,242.2
2023-04-20T03:54:33.250Z,241.3
2023-04-20T03:59:21.477Z,239.7
2023-04-20T04:04:20.033Z,242.7
2023-04-20T04:09:18.712Z,240.3
2023-04-20T04:14:18.812Z,240.9
2023-04-20T04:19:17.863Z,239.8
2023-04-20T04:24:17.585Z,238.7
2023-04-20T04:29:17.175Z,239.8
2023-04-20T04:34:16.508Z,241.9
2023-04-20T04:39:17.628Z,240
2023-04-20T04:44:14.538Z,239.8
2023-04-20T04:49:14.078Z,241.3
2023-04-20T04:54:14.322Z,240.9
2023-04-20T04:59:13.779Z,239.3
2023-04-20T05:04:13.689Z,238.6
2023-04-20T05:09:11.976Z,241.4
2023-04-20T05:14:12.516Z,241.6
2023-04-20T05:19:11.318Z,242.2
2023-04-20T05:24:10.880Z,241.2
2023-04-20T05:29:10.102Z,241.5
2023-04-20T05:34:11.476Z,241.3
2023-04-20T05:39:09.775Z,241
2023-04-20T05:44:10.793Z,240.8
2023-04-20T06:05:27.945Z,241.5
2023-04-20T06:10:27.155Z,239.7
2023-04-20T06:15:26.640Z,236.6
2023-04-20T06:20:27.338Z,238.2
2023-04-20T06:25:24.624Z,234.9
2023-04-20T06:30:24.808Z,240.6
2023-04-20T06:35:24.169Z,241.3
2023-04-20T06:41:15.875Z,236.6
2023-04-20T06:45:23.733Z,235.1
2023-04-20T06:50:23.768Z,238.4
2023-04-20T06:55:23.983Z,235.2
2023-04-20T07:04:25.276Z,240.4
2023-04-20T07:09:24.246Z,240
2023-04-20T07:14:24.465Z,245.7
2023-04-20T07:19:22.841Z,244.2
2023-04-20T07:24:22.278Z,239.6
2023-04-20T07:29:21.842Z,237.9
2023-04-20T07:34:23.394Z,236.7
2023-04-20T07:39:19.810Z,239.8
2023-04-20T07:44:19.448Z,242.4
2023-04-20T07:49:18.782Z,242.5
2023-04-20T07:54:18.309Z,241.7
2023-04-20T07:59:16.864Z,241.2
2023-04-20T08:04:17.496Z,242.4
2023-04-20T08:14:18.399Z,238.9
2023-04-20T08:19:16.147Z,236.8
2023-04-20T08:29:14.564Z,235.5
2023-04-20T08:34:14.264Z,234.7
2023-04-20T08:44:12.332Z,236.5
2023-04-20T08:49:11.897Z,242.3
2023-04-20T08:59:11.447Z,244.3
2023-04-20T09:04:10.501Z,242.8
2023-04-20T09:14:08.783Z,240.3
2023-04-20T09:19:10.436Z,238.5
2023-04-20T09:24:06.996Z,237.2
2023-04-20T09:29:06.704Z,234.5
2023-04-20T09:34:06.094Z,239.4
2023-04-20T09:39:05.635Z,241.4
2023-04-20T09:44:04.159Z,239.9
2023-04-20T09:49:03.993Z,241.7
2023-04-20T09:54:04.042Z,242.1
2023-04-20T09:59:03.255Z,240.8
2023-04-20T10:05:24.201Z,243.9
2023-04-20T10:10:23.868Z,243.9
2023-04-20T10:15:23.163Z,243
2023-04-20T10:20:24.363Z,231.5
2023-04-20T10:25:21.218Z,232.2
2023-04-20T10:30:21.104Z,230.8
2023-04-20T10:35:20.061Z,219.6
2023-04-20T10:40:19.364Z,225
2023-04-20T10:45:17.608Z,228.7
2023-04-20T10:50:17.805Z,230.5
2023-04-20T10:55:16.943Z,231.2
2023-04-20T11:04:52.562Z,234.1
2023-04-20T11:09:53.207Z,241.2
2023-04-20T11:14:53.083Z,230.3
2023-04-20T11:19:51.877Z,224.3
2023-04-20T11:24:51.815Z,220.7
2023-04-20T11:29:51.664Z,220.1
2023-04-20T11:34:56.021Z,215.6
2023-04-20T11:39:51.829Z,221.8
2023-04-20T11:44:51.322Z,222.3
2023-04-20T11:49:52.461Z,226.3
2023-04-20T11:54:48.952Z,222.4
2023-04-20T11:59:24.264Z,231.5
2023-04-20T12:04:25.245Z,215.2
2023-04-20T12:09:23.227Z,231.6
2023-04-20T12:14:22.863Z,236.7
2023-04-20T12:19:22.581Z,234.6
2023-04-20T12:24:23.137Z,236.6
2023-04-20T12:29:21.042Z,231.2
2023-04-20T12:34:35.935Z,224.2
2023-04-20T12:39:21.458Z,230.1
2023-04-20T12:44:25.898Z,238.3
2023-04-20T12:49:19.809Z,236.1
2023-04-20T12:54:19.467Z,241.2
2023-04-20T13:19:16.619Z,240.9
2023-04-20T13:24:18.598Z,232.9
2023-04-20T13:29:16.312Z,247.3
2023-04-20T13:34:14.583Z,245.3
2023-04-20T13:39:14.144Z,248
2023-04-20T13:44:14.429Z,246
2023-04-20T13:49:13.813Z,241.6
2023-04-20T13:54:13.083Z,244.9
2023-04-20T13:59:13.331Z,247.4
2023-04-20T14:00:51.158Z,246.4
2023-04-20T14:05:33.667Z,243.5
2023-04-20T14:10:31.796Z,246.5
2023-04-20T14:15:31.342Z,241.7
2023-04-20T14:20:31.474Z,240.7
2023-04-20T14:25:30.765Z,242.3
2023-04-20T14:35:29.464Z,242.1
2023-04-20T14:45:28.409Z,239.3
2023-04-20T16:04:23.223Z,237.1
2023-04-20T16:09:23.536Z,237.8
2023-04-20T16:14:19.550Z,240.7
2023-04-20T16:19:19.153Z,240.3
2023-04-20T16:24:19.243Z,241.3
2023-04-20T16:29:18.542Z,242.2
2023-04-20T16:34:17.543Z,242.3
2023-04-20T16:39:16.874Z,243.6
2023-04-20T16:44:17.176Z,240.8
2023-04-20T16:49:16.327Z,242.2
2023-04-20T16:54:15.639Z,241.7
2023-04-20T16:59:15.526Z,243
2023-04-20T17:04:16.080Z,241.4
2023-04-20T17:09:13.963Z,240.1
2023-04-20T17:14:12.389Z,241.3
2023-04-20T17:19:13.752Z,242.1
2023-04-20T17:24:12.274Z,239.9
2023-04-20T17:29:11.353Z,242.1
2023-04-20T17:34:11.126Z,240.8
2023-04-20T17:39:10.130Z,239.6
2023-04-20T17:44:12.094Z,239.4
2023-04-20T17:49:09.109Z,239.5
2023-04-20T17:54:10.201Z,237.6
2023-04-20T17:59:07.404Z,237.8
2023-04-20T18:05:27.721Z,239.8
2023-04-20T18:35:23.993Z,237.7
2023-04-20T18:40:24.070Z,237.6
2023-04-20T18:45:23.728Z,237.8
2023-04-20T18:50:23.799Z,238.2
2023-04-20T18:55:22.197Z,238.1
2023-04-20T18:59:44.072Z,229.2
2023-04-20T19:04:45.050Z,228.9
2023-04-20T19:09:43.977Z,231
2023-04-20T19:14:53.239Z,232.1
2023-04-20T19:19:53.133Z,231.8
2023-04-20T19:24:52.900Z,233.6
2023-04-20T19:29:53.702Z,233.2
2023-04-20T19:34:51.140Z,232.9
2023-04-20T19:39:49.990Z,234.4
2023-04-20T19:44:51.872Z,233.7
2023-04-20T19:49:48.369Z,233.1
2023-04-20T19:54:48.681Z,234.1
2023-04-20T19:59:25.145Z,238.7
2023-04-20T20:04:25.520Z,238
2023-04-20T20:09:24.474Z,237.5
2023-04-20T20:14:24.511Z,238.8
2023-04-20T20:19:23.242Z,239.3
2023-04-20T20:24:24.324Z,238.9
2023-04-20T20:29:21.378Z,238.9
2023-04-20T20:34:21.775Z,238.3
2023-04-20T20:39:20.832Z,237.9
2023-04-20T20:44:19.655Z,237.9
2023-04-20T20:49:21.941Z,239.3
2023-04-20T20:54:19.492Z,239.1
2023-04-20T21:44:15.309Z,237
2023-04-20T21:49:13.086Z,237.2
2023-04-20T21:54:12.843Z,237.8
2023-04-20T21:59:12.869Z,237.2
2023-04-20T22:04:13.212Z,237.5
2023-04-20T22:09:09.714Z,238.6
2023-04-20T22:14:09.230Z,236.8
2023-04-20T22:19:09.441Z,238.5
2023-04-20T22:24:09.081Z,238.4
2023-04-20T22:29:08.183Z,238.1
2023-04-20T22:34:07.671Z,239.1
2023-04-20T23:05:26.154Z,239.4
2023-04-20T23:10:24.942Z,240.1
2023-04-20T23:15:24.962Z,239.3
2023-04-20T23:25:23.712Z,240.2
2023-04-20T23:30:23.280Z,239.6
2023-04-20T23:40:23.435Z,237.3
2023-04-20T23:50:21.577Z,238.2
